sensor_id;sensor_type;location;lat;lon;timestamp;P1;durP1;ratioP1;P2;durP2;ratioP2
84923;SDS011;75286;52.218;5.180;2024-02-15T00:00:58;21.38;;;7.07;;
84923;SDS011;75286;52.218;5.180;2024-02-15T00:03:25;20.33;;;8.73;;
84923;SDS011;75286;52.218;5.180;2024-02-15T00:05:50;20.50;;;8.23;;
84923;SDS011;75286;52.218;5.180;2024-02-15T00:08:15;16.25;;;8.55;;
84923;SDS011;75286;52.218;5.180;2024-02-15T00:10:41;17.67;;;8.75;;
84923;SDS011;75286;52.218;5.180;2024-02-15T00:13:06;15.82;;;7.50;;
84923;SDS011;75286;52.218;5.180;2024-02-15T00:15:32;15.75;;;6.93;;
84923;SDS011;75286;52.218;5.180;2024-02-15T00:17:59;21.50;;;7.47;;
84923;SDS011;75286;52.218;5.180;2024-02-15T00:20:25;18.90;;;7.75;;
84923;SDS011;75286;52.218;5.180;2024-02-15T00:22:50;17.42;;;7.28;;
84923;SDS011;75286;52.218;5.180;2024-02-15T00:25:17;15.60;;;6.90;;
84923;SDS011;75286;52.218;5.180;2024-02-15T00:27:44;16.55;;;6.28;;
84923;SDS011;75286;52.218;5.180;2024-02-15T00:30:10;15.13;;;5.90;;
84923;SDS011;75286;52.218;5.180;2024-02-15T00:32:36;15.50;;;5.80;;
84923;SDS011;75286;52.218;5.180;2024-02-15T00:35:02;16.20;;;6.45;;
84923;SDS011;75286;52.218;5.180;2024-02-15T00:37:31;15.45;;;6.32;;
84923;SDS011;75286;52.218;5.180;2024-02-15T00:39:56;19.05;;;6.78;;
84923;SDS011;75286;52.218;5.180;2024-02-15T00:42:21;16.23;;;6.03;;
84923;SDS011;75286;52.218;5.180;2024-02-15T00:44:47;18.15;;;6.20;;
84923;SDS011;75286;52.218;5.180;2024-02-15T00:47:12;14.15;;;5.25;;
84923;SDS011;75286;52.218;5.180;2024-02-15T00:49:38;15.70;;;6.65;;
84923;SDS011;75286;52.218;5.180;2024-02-15T00:52:03;13.70;;;5.95;;
84923;SDS011;75286;52.218;5.180;2024-02-15T00:54:29;16.75;;;6.35;;
84923;SDS011;75286;52.218;5.180;2024-02-15T00:56:54;14.60;;;6.13;;
84923;SDS011;75286;52.218;5.180;2024-02-15T00:59:19;16.15;;;5.72;;
84923;SDS011;75286;52.218;5.180;2024-02-15T01:01:45;11.70;;;5.57;;
84923;SDS011;75286;52.218;5.180;2024-02-15T01:04:11;13.50;;;5.28;;
84923;SDS011;75286;52.218;5.180;2024-02-15T01:06:37;12.43;;;5.45;;
84923;SDS011;75286;52.218;5.180;2024-02-15T01:09:02;14.32;;;5.78;;
84923;SDS011;75286;52.218;5.180;2024-02-15T01:11:29;13.43;;;5.50;;
84923;SDS011;75286;52.218;5.180;2024-02-15T01:13:57;15.25;;;6.45;;
84923;SDS011;75286;52.218;5.180;2024-02-15T01:16:23;13.45;;;5.10;;
84923;SDS011;75286;52.218;5.180;2024-02-15T01:18:49;11.02;;;6.10;;
84923;SDS011;75286;52.218;5.180;2024-02-15T01:21:15;11.43;;;5.45;;
84923;SDS011;75286;52.218;5.180;2024-02-15T01:23:40;16.65;;;6.35;;
84923;SDS011;75286;52.218;5.180;2024-02-15T01:26:06;14.65;;;6.60;;
84923;SDS011;75286;52.218;5.180;2024-02-15T01:28:31;13.77;;;6.30;;
84923;SDS011;75286;52.218;5.180;2024-02-15T01:30:57;10.27;;;5.40;;
84923;SDS011;75286;52.218;5.180;2024-02-15T01:33:22;14.38;;;6.53;;
84923;SDS011;75286;52.218;5.180;2024-02-15T01:35:51;16.48;;;7.43;;
84923;SDS011;75286;52.218;5.180;2024-02-15T01:38:17;19.05;;;8.32;;
84923;SDS011;75286;52.218;5.180;2024-02-15T01:40:42;12.32;;;5.78;;
84923;SDS011;75286;52.218;5.180;2024-02-15T01:43:07;14.43;;;7.25;;
84923;SDS011;75286;52.218;5.180;2024-02-15T01:45:33;13.07;;;6.90;;
84923;SDS011;75286;52.218;5.180;2024-02-15T01:47:58;16.65;;;8.43;;
84923;SDS011;75286;52.218;5.180;2024-02-15T01:50:24;18.50;;;8.02;;
84923;SDS011;75286;52.218;5.180;2024-02-15T01:52:52;16.35;;;8.15;;
84923;SDS011;75286;52.218;5.180;2024-02-15T01:55:19;16.80;;;8.15;;
84923;SDS011;75286;52.218;5.180;2024-02-15T01:57:46;18.83;;;8.45;;
84923;SDS011;75286;52.218;5.180;2024-02-15T02:00:13;13.00;;;6.93;;
84923;SDS011;75286;52.218;5.180;2024-02-15T02:02:41;19.58;;;8.63;;
84923;SDS011;75286;52.218;5.180;2024-02-15T02:05:08;20.80;;;9.32;;
84923;SDS011;75286;52.218;5.180;2024-02-15T02:07:33;14.18;;;8.07;;
84923;SDS011;75286;52.218;5.180;2024-02-15T02:09:59;17.77;;;10.25;;
84923;SDS011;75286;52.218;5.180;2024-02-15T02:12:25;22.13;;;9.55;;
84923;SDS011;75286;52.218;5.180;2024-02-15T02:14:52;17.00;;;8.65;;
84923;SDS011;75286;52.218;5.180;2024-02-15T02:17:19;20.08;;;10.85;;
84923;SDS011;75286;52.218;5.180;2024-02-15T02:19:45;14.35;;;9.00;;
84923;SDS011;75286;52.218;5.180;2024-02-15T02:22:10;18.23;;;9.52;;
84923;SDS011;75286;52.218;5.180;2024-02-15T02:24:40;16.67;;;9.10;;
84923;SDS011;75286;52.218;5.180;2024-02-15T02:27:13;21.17;;;9.48;;
84923;SDS011;75286;52.218;5.180;2024-02-15T02:29:43;17.60;;;9.32;;
84923;SDS011;75286;52.218;5.180;2024-02-15T02:32:11;18.15;;;9.65;;
84923;SDS011;75286;52.218;5.180;2024-02-15T02:34:37;15.80;;;8.15;;
84923;SDS011;75286;52.218;5.180;2024-02-15T02:37:03;23.40;;;10.50;;
84923;SDS011;75286;52.218;5.180;2024-02-15T02:39:30;22.10;;;11.10;;
84923;SDS011;75286;52.218;5.180;2024-02-15T02:41:56;18.15;;;9.88;;
84923;SDS011;75286;52.218;5.180;2024-02-15T02:44:23;16.48;;;8.50;;
84923;SDS011;75286;52.218;5.180;2024-02-15T02:46:48;15.13;;;9.10;;
84923;SDS011;75286;52.218;5.180;2024-02-15T02:49:13;19.10;;;10.00;;
84923;SDS011;75286;52.218;5.180;2024-02-15T02:51:39;16.33;;;9.40;;
84923;SDS011;75286;52.218;5.180;2024-02-15T02:54:04;14.90;;;8.35;;
84923;SDS011;75286;52.218;5.180;2024-02-15T02:56:31;20.33;;;10.23;;
84923;SDS011;75286;52.218;5.180;2024-02-15T02:58:57;22.58;;;11.05;;
84923;SDS011;75286;52.218;5.180;2024-02-15T03:01:23;16.83;;;10.57;;
84923;SDS011;75286;52.218;5.180;2024-02-15T03:03:51;21.88;;;11.43;;
84923;SDS011;75286;52.218;5.180;2024-02-15T03:06:20;22.63;;;11.32;;
84923;SDS011;75286;52.218;5.180;2024-02-15T03:08:46;18.67;;;10.85;;
84923;SDS011;75286;52.218;5.180;2024-02-15T03:11:12;21.85;;;10.95;;
84923;SDS011;75286;52.218;5.180;2024-02-15T03:13:39;22.85;;;11.55;;
84923;SDS011;75286;52.218;5.180;2024-02-15T03:16:04;16.98;;;10.65;;
84923;SDS011;75286;52.218;5.180;2024-02-15T03:18:30;22.10;;;10.80;;
84923;SDS011;75286;52.218;5.180;2024-02-15T03:20:57;17.52;;;10.40;;
84923;SDS011;75286;52.218;5.180;2024-02-15T03:23:22;19.85;;;9.35;;
84923;SDS011;75286;52.218;5.180;2024-02-15T03:25:48;18.98;;;10.20;;
84923;SDS011;75286;52.218;5.180;2024-02-15T03:28:16;19.75;;;10.55;;
84923;SDS011;75286;52.218;5.180;2024-02-15T03:30:42;17.73;;;9.18;;
84923;SDS011;75286;52.218;5.180;2024-02-15T03:33:11;16.52;;;8.45;;
84923;SDS011;75286;52.218;5.180;2024-02-15T03:35:37;19.70;;;9.10;;
84923;SDS011;75286;52.218;5.180;2024-02-15T03:38:02;14.02;;;8.43;;
84923;SDS011;75286;52.218;5.180;2024-02-15T03:40:28;17.10;;;8.88;;
84923;SDS011;75286;52.218;5.180;2024-02-15T03:42:55;14.27;;;7.65;;
84923;SDS011;75286;52.218;5.180;2024-02-15T03:45:21;16.15;;;8.98;;
84923;SDS011;75286;52.218;5.180;2024-02-15T03:47:53;17.02;;;9.57;;
84923;SDS011;75286;52.218;5.180;2024-02-15T03:50:21;15.45;;;7.05;;
84923;SDS011;75286;52.218;5.180;2024-02-15T03:52:47;13.70;;;8.18;;
84923;SDS011;75286;52.218;5.180;2024-02-15T03:55:12;15.00;;;8.75;;
84923;SDS011;75286;52.218;5.180;2024-02-15T03:57:38;18.73;;;8.07;;
84923;SDS011;75286;52.218;5.180;2024-02-15T04:00:08;16.13;;;8.93;;
84923;SDS011;75286;52.218;5.180;2024-02-15T04:02:39;14.55;;;7.78;;
84923;SDS011;75286;52.218;5.180;2024-02-15T04:05:06;20.13;;;7.93;;
84923;SDS011;75286;52.218;5.180;2024-02-15T04:07:32;13.88;;;7.38;;
84923;SDS011;75286;52.218;5.180;2024-02-15T04:09:58;11.77;;;6.93;;
84923;SDS011;75286;52.218;5.180;2024-02-15T04:12:24;13.55;;;7.45;;
84923;SDS011;75286;52.218;5.180;2024-02-15T04:14:49;15.70;;;7.35;;
84923;SDS011;75286;52.218;5.180;2024-02-15T04:17:16;17.35;;;7.22;;
84923;SDS011;75286;52.218;5.180;2024-02-15T04:19:46;15.65;;;6.95;;
84923;SDS011;75286;52.218;5.180;2024-02-15T04:22:13;11.70;;;6.03;;
84923;SDS011;75286;52.218;5.180;2024-02-15T04:24:41;15.82;;;7.68;;
84923;SDS011;75286;52.218;5.180;2024-02-15T04:27:07;12.88;;;6.68;;
84923;SDS011;75286;52.218;5.180;2024-02-15T04:29:45;15.10;;;6.15;;
84923;SDS011;75286;52.218;5.180;2024-02-15T04:32:11;12.35;;;6.68;;
84923;SDS011;75286;52.218;5.180;2024-02-15T04:34:38;13.43;;;6.53;;
84923;SDS011;75286;52.218;5.180;2024-02-15T04:37:04;14.98;;;6.95;;
84923;SDS011;75286;52.218;5.180;2024-02-15T04:39:32;16.70;;;7.75;;
84923;SDS011;75286;52.218;5.180;2024-02-15T04:42:01;18.48;;;7.15;;
84923;SDS011;75286;52.218;5.180;2024-02-15T04:44:27;18.08;;;7.68;;
84923;SDS011;75286;52.218;5.180;2024-02-15T04:46:55;15.63;;;7.15;;
84923;SDS011;75286;52.218;5.180;2024-02-15T04:49:20;17.95;;;8.63;;
84923;SDS011;75286;52.218;5.180;2024-02-15T04:51:46;16.20;;;8.15;;
84923;SDS011;75286;52.218;5.180;2024-02-15T04:54:12;16.33;;;7.55;;
84923;SDS011;75286;52.218;5.180;2024-02-15T04:56:41;12.80;;;6.60;;
84923;SDS011;75286;52.218;5.180;2024-02-15T04:59:08;15.25;;;8.18;;
84923;SDS011;75286;52.218;5.180;2024-02-15T05:01:37;16.20;;;8.35;;
84923;SDS011;75286;52.218;5.180;2024-02-15T05:04:02;14.32;;;6.68;;
84923;SDS011;75286;52.218;5.180;2024-02-15T05:06:32;18.65;;;8.55;;
84923;SDS011;75286;52.218;5.180;2024-02-15T05:08:58;19.35;;;9.23;;
84923;SDS011;75286;52.218;5.180;2024-02-15T05:11:25;15.63;;;8.05;;
84923;SDS011;75286;52.218;5.180;2024-02-15T05:13:51;20.67;;;9.63;;
84923;SDS011;75286;52.218;5.180;2024-02-15T05:16:17;16.45;;;9.52;;
84923;SDS011;75286;52.218;5.180;2024-02-15T05:18:43;17.38;;;9.43;;
84923;SDS011;75286;52.218;5.180;2024-02-15T05:21:08;19.45;;;9.88;;
84923;SDS011;75286;52.218;5.180;2024-02-15T05:23:36;15.88;;;7.47;;
84923;SDS011;75286;52.218;5.180;2024-02-15T05:26:08;15.43;;;9.20;;
84923;SDS011;75286;52.218;5.180;2024-02-15T05:28:34;18.77;;;10.30;;
84923;SDS011;75286;52.218;5.180;2024-02-15T05:31:12;14.23;;;9.13;;
84923;SDS011;75286;52.218;5.180;2024-02-15T05:33:41;14.98;;;8.98;;
84923;SDS011;75286;52.218;5.180;2024-02-15T05:36:12;15.05;;;9.10;;
84923;SDS011;75286;52.218;5.180;2024-02-15T05:38:39;15.27;;;9.82;;
84923;SDS011;75286;52.218;5.180;2024-02-15T05:41:05;16.15;;;8.55;;
84923;SDS011;75286;52.218;5.180;2024-02-15T05:43:34;16.80;;;9.52;;
84923;SDS011;75286;52.218;5.180;2024-02-15T05:46:02;15.25;;;9.43;;
84923;SDS011;75286;52.218;5.180;2024-02-15T05:48:28;14.82;;;9.27;;
84923;SDS011;75286;52.218;5.180;2024-02-15T05:50:56;17.17;;;9.85;;
84923;SDS011;75286;52.218;5.180;2024-02-15T05:53:22;17.90;;;9.77;;
84923;SDS011;75286;52.218;5.180;2024-02-15T05:55:49;17.70;;;9.90;;
84923;SDS011;75286;52.218;5.180;2024-02-15T05:58:15;19.92;;;11.10;;
84923;SDS011;75286;52.218;5.180;2024-02-15T06:00:40;19.95;;;11.38;;
84923;SDS011;75286;52.218;5.180;2024-02-15T06:03:06;16.80;;;9.82;;
84923;SDS011;75286;52.218;5.180;2024-02-15T06:05:34;16.70;;;10.77;;
84923;SDS011;75286;52.218;5.180;2024-02-15T06:08:00;17.02;;;8.80;;
84923;SDS011;75286;52.218;5.180;2024-02-15T06:10:25;22.83;;;11.40;;
84923;SDS011;75286;52.218;5.180;2024-02-15T06:12:51;20.33;;;12.27;;
84923;SDS011;75286;52.218;5.180;2024-02-15T06:15:16;17.70;;;10.70;;
84923;SDS011;75286;52.218;5.180;2024-02-15T06:17:42;19.23;;;11.80;;
84923;SDS011;75286;52.218;5.180;2024-02-15T06:20:10;20.23;;;12.25;;
84923;SDS011;75286;52.218;5.180;2024-02-15T06:22:39;17.08;;;10.75;;
84923;SDS011;75286;52.218;5.180;2024-02-15T06:25:05;21.58;;;11.60;;
84923;SDS011;75286;52.218;5.180;2024-02-15T06:27:31;19.08;;;11.65;;
84923;SDS011;75286;52.218;5.180;2024-02-15T06:29:57;23.60;;;14.52;;
84923;SDS011;75286;52.218;5.180;2024-02-15T06:32:41;23.55;;;12.48;;
84923;SDS011;75286;52.218;5.180;2024-02-15T06:35:25;20.10;;;12.95;;
84923;SDS011;75286;52.218;5.180;2024-02-15T06:38:09;18.02;;;12.57;;
84923;SDS011;75286;52.218;5.180;2024-02-15T06:40:53;16.73;;;12.20;;
84923;SDS011;75286;52.218;5.180;2024-02-15T06:43:19;20.40;;;12.10;;
84923;SDS011;75286;52.218;5.180;2024-02-15T06:45:44;20.42;;;12.73;;
84923;SDS011;75286;52.218;5.180;2024-02-15T06:48:12;19.50;;;12.75;;
84923;SDS011;75286;52.218;5.180;2024-02-15T06:50:39;20.90;;;12.10;;
84923;SDS011;75286;52.218;5.180;2024-02-15T06:53:05;20.45;;;13.18;;
84923;SDS011;75286;52.218;5.180;2024-02-15T06:55:30;22.65;;;12.38;;
84923;SDS011;75286;52.218;5.180;2024-02-15T06:57:56;17.80;;;11.70;;
84923;SDS011;75286;52.218;5.180;2024-02-15T07:00:21;19.70;;;12.38;;
84923;SDS011;75286;52.218;5.180;2024-02-15T07:02:47;20.10;;;12.95;;
84923;SDS011;75286;52.218;5.180;2024-02-15T07:05:13;20.35;;;12.57;;
84923;SDS011;75286;52.218;5.180;2024-02-15T07:07:39;14.70;;;10.57;;
84923;SDS011;75286;52.218;5.180;2024-02-15T07:10:07;19.17;;;13.15;;
84923;SDS011;75286;52.218;5.180;2024-02-15T07:12:34;19.88;;;13.05;;
84923;SDS011;75286;52.218;5.180;2024-02-15T07:14:59;21.75;;;12.38;;
84923;SDS011;75286;52.218;5.180;2024-02-15T07:17:27;19.15;;;12.52;;
84923;SDS011;75286;52.218;5.180;2024-02-15T07:19:53;16.52;;;11.18;;
84923;SDS011;75286;52.218;5.180;2024-02-15T07:22:18;16.60;;;11.95;;
84923;SDS011;75286;52.218;5.180;2024-02-15T07:24:43;17.17;;;10.25;;
84923;SDS011;75286;52.218;5.180;2024-02-15T07:27:09;17.40;;;11.43;;
84923;SDS011;75286;52.218;5.180;2024-02-15T07:29:35;15.90;;;10.75;;
84923;SDS011;75286;52.218;5.180;2024-02-15T07:32:03;16.73;;;10.13;;
84923;SDS011;75286;52.218;5.180;2024-02-15T07:34:29;14.90;;;9.77;;
84923;SDS011;75286;52.218;5.180;2024-02-15T07:36:55;13.82;;;8.75;;
84923;SDS011;75286;52.218;5.180;2024-02-15T07:39:21;13.07;;;8.90;;
84923;SDS011;75286;52.218;5.180;2024-02-15T07:41:52;13.20;;;8.63;;
84923;SDS011;75286;52.218;5.180;2024-02-15T07:44:18;13.80;;;8.52;;
84923;SDS011;75286;52.218;5.180;2024-02-15T07:46:43;12.73;;;8.32;;
84923;SDS011;75286;52.218;5.180;2024-02-15T07:49:09;12.82;;;8.65;;
84923;SDS011;75286;52.218;5.180;2024-02-15T07:51:34;12.38;;;7.78;;
84923;SDS011;75286;52.218;5.180;2024-02-15T07:54:01;9.73;;;6.30;;
84923;SDS011;75286;52.218;5.180;2024-02-15T07:56:26;10.60;;;6.78;;
84923;SDS011;75286;52.218;5.180;2024-02-15T07:58:52;10.70;;;5.63;;
84923;SDS011;75286;52.218;5.180;2024-02-15T08:01:20;11.65;;;6.18;;
84923;SDS011;75286;52.218;5.180;2024-02-15T08:03:46;10.68;;;6.22;;
84923;SDS011;75286;52.218;5.180;2024-02-15T08:06:12;11.18;;;6.60;;
84923;SDS011;75286;52.218;5.180;2024-02-15T08:08:40;11.27;;;6.13;;
84923;SDS011;75286;52.218;5.180;2024-02-15T08:11:11;11.63;;;6.43;;
84923;SDS011;75286;52.218;5.180;2024-02-15T08:13:58;8.75;;;5.53;;
84923;SDS011;75286;52.218;5.180;2024-02-15T08:16:26;9.10;;;5.18;;
84923;SDS011;75286;52.218;5.180;2024-02-15T08:18:54;10.38;;;5.32;;
84923;SDS011;75286;52.218;5.180;2024-02-15T08:21:30;9.38;;;5.20;;
84923;SDS011;75286;52.218;5.180;2024-02-15T08:24:01;10.02;;;5.35;;
84923;SDS011;75286;52.218;5.180;2024-02-15T08:26:35;9.82;;;5.18;;
84923;SDS011;75286;52.218;5.180;2024-02-15T08:29:03;9.50;;;4.97;;
84923;SDS011;75286;52.218;5.180;2024-02-15T08:31:28;8.65;;;4.07;;
84923;SDS011;75286;52.218;5.180;2024-02-15T08:33:56;7.63;;;4.65;;
84923;SDS011;75286;52.218;5.180;2024-02-15T08:36:21;7.03;;;4.10;;
84923;SDS011;75286;52.218;5.180;2024-02-15T08:38:47;7.75;;;4.22;;
84923;SDS011;75286;52.218;5.180;2024-02-15T08:41:15;7.82;;;4.32;;
84923;SDS011;75286;52.218;5.180;2024-02-15T08:43:42;9.20;;;4.80;;
84923;SDS011;75286;52.218;5.180;2024-02-15T08:46:07;8.15;;;4.93;;
84923;SDS011;75286;52.218;5.180;2024-02-15T08:48:33;8.52;;;4.72;;
84923;SDS011;75286;52.218;5.180;2024-02-15T08:50:58;8.55;;;5.00;;
84923;SDS011;75286;52.218;5.180;2024-02-15T08:53:23;8.40;;;4.70;;
84923;SDS011;75286;52.218;5.180;2024-02-15T08:55:49;8.10;;;4.75;;
84923;SDS011;75286;52.218;5.180;2024-02-15T08:58:15;8.07;;;3.97;;
84923;SDS011;75286;52.218;5.180;2024-02-15T09:00:40;9.23;;;5.05;;
84923;SDS011;75286;52.218;5.180;2024-02-15T09:03:12;9.18;;;4.90;;
84923;SDS011;75286;52.218;5.180;2024-02-15T09:05:38;8.07;;;4.35;;
84923;SDS011;75286;52.218;5.180;2024-02-15T09:08:05;9.90;;;4.70;;
84923;SDS011;75286;52.218;5.180;2024-02-15T09:10:31;8.18;;;4.57;;
84923;SDS011;75286;52.218;5.180;2024-02-15T09:12:56;10.40;;;5.13;;
84923;SDS011;75286;52.218;5.180;2024-02-15T09:15:22;8.90;;;5.25;;
84923;SDS011;75286;52.218;5.180;2024-02-15T09:17:48;10.43;;;5.63;;
84923;SDS011;75286;52.218;5.180;2024-02-15T09:20:14;10.85;;;5.20;;
84923;SDS011;75286;52.218;5.180;2024-02-15T09:22:49;9.75;;;5.28;;
84923;SDS011;75286;52.218;5.180;2024-02-15T09:27:44;10.60;;;5.45;;
84923;SDS011;75286;52.218;5.180;2024-02-15T09:30:10;10.10;;;4.80;;
84923;SDS011;75286;52.218;5.180;2024-02-15T09:32:37;8.73;;;4.85;;
84923;SDS011;75286;52.218;5.180;2024-02-15T09:35:03;9.77;;;4.97;;
84923;SDS011;75286;52.218;5.180;2024-02-15T09:37:32;11.20;;;5.55;;
84923;SDS011;75286;52.218;5.180;2024-02-15T09:39:58;10.43;;;5.72;;
84923;SDS011;75286;52.218;5.180;2024-02-15T09:42:28;11.98;;;5.53;;
84923;SDS011;75286;52.218;5.180;2024-02-15T09:44:54;10.77;;;5.65;;
84923;SDS011;75286;52.218;5.180;2024-02-15T09:47:19;9.98;;;5.70;;
84923;SDS011;75286;52.218;5.180;2024-02-15T09:49:46;9.85;;;5.57;;
84923;SDS011;75286;52.218;5.180;2024-02-15T09:52:12;13.82;;;5.78;;
84923;SDS011;75286;52.218;5.180;2024-02-15T09:54:41;10.00;;;5.20;;
84923;SDS011;75286;52.218;5.180;2024-02-15T09:57:10;9.52;;;5.88;;
84923;SDS011;75286;52.218;5.180;2024-02-15T09:59:37;12.00;;;5.25;;
84923;SDS011;75286;52.218;5.180;2024-02-15T10:02:03;11.55;;;5.30;;
84923;SDS011;75286;52.218;5.180;2024-02-15T10:04:28;14.50;;;5.38;;
84923;SDS011;75286;52.218;5.180;2024-02-15T10:06:54;9.75;;;5.07;;
84923;SDS011;75286;52.218;5.180;2024-02-15T10:09:23;12.82;;;5.70;;
84923;SDS011;75286;52.218;5.180;2024-02-15T10:14:25;12.07;;;5.53;;
84923;SDS011;75286;52.218;5.180;2024-02-15T10:16:55;12.52;;;5.53;;
84923;SDS011;75286;52.218;5.180;2024-02-15T10:19:21;11.00;;;6.47;;
84923;SDS011;75286;52.218;5.180;2024-02-15T10:21:53;15.15;;;6.82;;
84923;SDS011;75286;52.218;5.180;2024-02-15T10:24:23;13.02;;;7.05;;
84923;SDS011;75286;52.218;5.180;2024-02-15T10:26:49;16.70;;;7.18;;
84923;SDS011;75286;52.218;5.180;2024-02-15T10:29:16;14.25;;;7.13;;
84923;SDS011;75286;52.218;5.180;2024-02-15T10:31:58;15.82;;;7.70;;
84923;SDS011;75286;52.218;5.180;2024-02-15T10:34:24;13.70;;;6.93;;
84923;SDS011;75286;52.218;5.180;2024-02-15T10:36:56;10.63;;;6.18;;
84923;SDS011;75286;52.218;5.180;2024-02-15T10:39:36;13.95;;;6.70;;
84923;SDS011;75286;52.218;5.180;2024-02-15T10:42:02;9.85;;;5.40;;
84923;SDS011;75286;52.218;5.180;2024-02-15T10:44:28;11.98;;;6.38;;
84923;SDS011;75286;52.218;5.180;2024-02-15T10:46:54;15.75;;;7.18;;
84923;SDS011;75286;52.218;5.180;2024-02-15T10:49:28;10.98;;;5.55;;
84923;SDS011;75286;52.218;5.180;2024-02-15T10:51:57;11.45;;;5.80;;
84923;SDS011;75286;52.218;5.180;2024-02-15T10:57:12;14.65;;;6.53;;
84923;SDS011;75286;52.218;5.180;2024-02-15T10:59:39;11.20;;;5.03;;
84923;SDS011;75286;52.218;5.180;2024-02-15T11:02:17;16.80;;;6.53;;
84923;SDS011;75286;52.218;5.180;2024-02-15T11:04:45;13.93;;;6.57;;
84923;SDS011;75286;52.218;5.180;2024-02-15T11:07:15;16.48;;;6.60;;
84923;SDS011;75286;52.218;5.180;2024-02-15T11:09:41;16.48;;;6.78;;
84923;SDS011;75286;52.218;5.180;2024-02-15T11:12:08;10.73;;;6.38;;
84923;SDS011;75286;52.218;5.180;2024-02-15T11:14:33;13.32;;;6.78;;
84923;SDS011;75286;52.218;5.180;2024-02-15T11:17:00;12.40;;;6.47;;
84923;SDS011;75286;52.218;5.180;2024-02-15T11:22:07;11.13;;;6.65;;
84923;SDS011;75286;52.218;5.180;2024-02-15T11:24:35;14.73;;;7.15;;
84923;SDS011;75286;52.218;5.180;2024-02-15T11:27:01;13.95;;;7.47;;
84923;SDS011;75286;52.218;5.180;2024-02-15T11:35:07;16.15;;;8.43;;
84923;SDS011;75286;52.218;5.180;2024-02-15T11:40:23;13.18;;;7.75;;
84923;SDS011;75286;52.218;5.180;2024-02-15T11:42:55;14.43;;;7.50;;
84923;SDS011;75286;52.218;5.180;2024-02-15T11:45:24;14.18;;;8.30;;
84923;SDS011;75286;52.218;5.180;2024-02-15T11:48:07;15.75;;;7.95;;
84923;SDS011;75286;52.218;5.180;2024-02-15T11:50:36;16.30;;;8.25;;
84923;SDS011;75286;52.218;5.180;2024-02-15T11:53:03;15.73;;;8.50;;
84923;SDS011;75286;52.218;5.180;2024-02-15T11:55:36;11.57;;;7.63;;
84923;SDS011;75286;52.218;5.180;2024-02-15T11:58:06;16.15;;;8.73;;
84923;SDS011;75286;52.218;5.180;2024-02-15T12:00:35;17.20;;;8.43;;
84923;SDS011;75286;52.218;5.180;2024-02-15T12:03:21;14.35;;;7.82;;
84923;SDS011;75286;52.218;5.180;2024-02-15T12:06:05;16.98;;;8.85;;
84923;SDS011;75286;52.218;5.180;2024-02-15T12:08:51;17.60;;;8.45;;
84923;SDS011;75286;52.218;5.180;2024-02-15T12:11:36;15.48;;;8.88;;
84923;SDS011;75286;52.218;5.180;2024-02-15T12:14:21;21.83;;;8.73;;
84923;SDS011;75286;52.218;5.180;2024-02-15T12:17:08;14.75;;;8.13;;
84923;SDS011;75286;52.218;5.180;2024-02-15T12:19:54;13.65;;;8.68;;
84923;SDS011;75286;52.218;5.180;2024-02-15T12:22:22;16.30;;;8.75;;
84923;SDS011;75286;52.218;5.180;2024-02-15T12:25:03;14.05;;;8.40;;
84923;SDS011;75286;52.218;5.180;2024-02-15T12:27:43;13.38;;;8.30;;
84923;SDS011;75286;52.218;5.180;2024-02-15T12:30:15;13.32;;;7.63;;
84923;SDS011;75286;52.218;5.180;2024-02-15T12:32:50;13.95;;;7.75;;
84923;SDS011;75286;52.218;5.180;2024-02-15T12:35:20;14.23;;;8.73;;
84923;SDS011;75286;52.218;5.180;2024-02-15T12:37:49;14.73;;;9.32;;
84923;SDS011;75286;52.218;5.180;2024-02-15T12:40:31;11.55;;;7.43;;
84923;SDS011;75286;52.218;5.180;2024-02-15T12:42:57;13.48;;;7.20;;
84923;SDS011;75286;52.218;5.180;2024-02-15T12:45:25;13.23;;;8.90;;
84923;SDS011;75286;52.218;5.180;2024-02-15T12:47:53;12.20;;;7.97;;
84923;SDS011;75286;52.218;5.180;2024-02-15T12:50:20;13.63;;;8.23;;
84923;SDS011;75286;52.218;5.180;2024-02-15T12:52:50;13.18;;;7.43;;
84923;SDS011;75286;52.218;5.180;2024-02-15T12:55:22;11.80;;;6.65;;
84923;SDS011;75286;52.218;5.180;2024-02-15T12:57:50;10.73;;;6.80;;
84923;SDS011;75286;52.218;5.180;2024-02-15T13:00:18;10.93;;;6.07;;
84923;SDS011;75286;52.218;5.180;2024-02-15T13:02:46;10.73;;;6.10;;
84923;SDS011;75286;52.218;5.180;2024-02-15T13:05:15;10.13;;;6.32;;
84923;SDS011;75286;52.218;5.180;2024-02-15T13:07:45;10.23;;;6.00;;
84923;SDS011;75286;52.218;5.180;2024-02-15T13:10:11;10.50;;;6.07;;
84923;SDS011;75286;52.218;5.180;2024-02-15T13:12:39;11.68;;;5.80;;
84923;SDS011;75286;52.218;5.180;2024-02-15T13:15:10;10.70;;;6.18;;
84923;SDS011;75286;52.218;5.180;2024-02-15T13:17:39;9.77;;;5.63;;
84923;SDS011;75286;52.218;5.180;2024-02-15T13:20:06;9.90;;;4.88;;
84923;SDS011;75286;52.218;5.180;2024-02-15T13:22:36;12.38;;;5.70;;
84923;SDS011;75286;52.218;5.180;2024-02-15T13:25:04;8.88;;;5.05;;
84923;SDS011;75286;52.218;5.180;2024-02-15T13:27:34;7.80;;;3.92;;
84923;SDS011;75286;52.218;5.180;2024-02-15T13:29:59;9.55;;;3.67;;
84923;SDS011;75286;52.218;5.180;2024-02-15T13:32:25;12.30;;;4.03;;
84923;SDS011;75286;52.218;5.180;2024-02-15T13:34:51;8.70;;;3.50;;
84923;SDS011;75286;52.218;5.180;2024-02-15T13:37:19;9.20;;;3.63;;
84923;SDS011;75286;52.218;5.180;2024-02-15T13:39:46;7.25;;;2.80;;
84923;SDS011;75286;52.218;5.180;2024-02-15T13:42:12;6.80;;;2.78;;
84923;SDS011;75286;52.218;5.180;2024-02-15T13:44:37;7.30;;;2.70;;
84923;SDS011;75286;52.218;5.180;2024-02-15T13:47:03;10.90;;;3.08;;
84923;SDS011;75286;52.218;5.180;2024-02-15T13:49:29;9.80;;;2.60;;
84923;SDS011;75286;52.218;5.180;2024-02-15T13:51:56;5.47;;;2.20;;
84923;SDS011;75286;52.218;5.180;2024-02-15T13:54:27;8.30;;;2.60;;
84923;SDS011;75286;52.218;5.180;2024-02-15T13:56:53;6.88;;;2.45;;
84923;SDS011;75286;52.218;5.180;2024-02-15T13:59:18;11.77;;;3.08;;
84923;SDS011;75286;52.218;5.180;2024-02-15T14:01:44;5.93;;;2.20;;
84923;SDS011;75286;52.218;5.180;2024-02-15T14:04:11;6.85;;;3.33;;
84923;SDS011;75286;52.218;5.180;2024-02-15T14:06:36;7.03;;;3.05;;
84923;SDS011;75286;52.218;5.180;2024-02-15T14:09:05;7.25;;;2.55;;
84923;SDS011;75286;52.218;5.180;2024-02-15T14:11:31;7.63;;;2.30;;
84923;SDS011;75286;52.218;5.180;2024-02-15T14:13:56;6.25;;;1.98;;
84923;SDS011;75286;52.218;5.180;2024-02-15T14:16:23;7.72;;;2.10;;
84923;SDS011;75286;52.218;5.180;2024-02-15T14:18:49;7.90;;;2.17;;
84923;SDS011;75286;52.218;5.180;2024-02-15T14:21:16;7.38;;;2.17;;
84923;SDS011;75286;52.218;5.180;2024-02-15T14:23:43;7.25;;;2.92;;
84923;SDS011;75286;52.218;5.180;2024-02-15T14:26:09;7.95;;;2.25;;
84923;SDS011;75286;52.218;5.180;2024-02-15T14:28:35;9.32;;;3.40;;
84923;SDS011;75286;52.218;5.180;2024-02-15T14:31:00;6.22;;;2.00;;
84923;SDS011;75286;52.218;5.180;2024-02-15T14:33:44;7.40;;;2.15;;
84923;SDS011;75286;52.218;5.180;2024-02-15T14:36:10;6.50;;;2.70;;
84923;SDS011;75286;52.218;5.180;2024-02-15T14:38:36;8.77;;;2.65;;
84923;SDS011;75286;52.218;5.180;2024-02-15T14:41:01;5.75;;;1.80;;
84923;SDS011;75286;52.218;5.180;2024-02-15T14:43:31;4.50;;;1.70;;
84923;SDS011;75286;52.218;5.180;2024-02-15T14:45:56;3.92;;;1.40;;
84923;SDS011;75286;52.218;5.180;2024-02-15T14:48:22;6.35;;;2.08;;
84923;SDS011;75286;52.218;5.180;2024-02-15T14:50:49;6.35;;;2.53;;
84923;SDS011;75286;52.218;5.180;2024-02-15T14:53:15;6.40;;;1.83;;
84923;SDS011;75286;52.218;5.180;2024-02-15T14:55:43;6.90;;;1.92;;
84923;SDS011;75286;52.218;5.180;2024-02-15T14:58:11;6.05;;;1.67;;